Thursday, October 23, 2014
00:42 UTC
  |  Log In   |  Register Free
Airport Search:

Heart Of Georgia Regional Airport
(KEZM)

FAA data valid effective September 18, 2014 - November 13, 2014 (unless otherwise noted).

 
 
 
 
 
 
 
 
 
 
 
 
 
 

Current Aviation Weather for Heart Of Georgia Regional Airport (KEZM)

The most recent METAR observation for KEZM was updated at: 0011
METAR Summary (Translated METAR)
KEZM
222355Z AUTO 00000KT 10SM CLR 12/11 A3009 RMK AO2 T01170111 10222 20117
KDBN
222355Z AUTO 00000KT 10SM CLR 08/08 A3009 RMK AO2
(22.1 nm NE from KEZM)
KAZE
222355Z AUTO 00000KT 10SM CLR 14/11 A3004 RMK AO2 T01430111 10328 20080
(31.6 nm SE from KEZM)
TAF
No TAF information found within 50 nm of KEZM
  Airport Weather Conditions for KEZM

 Current Weather at EZM
53° F
Fair
North winds at 0.0 mph
EZM NOAA Radar

Pressure: 30.09 in
Humidity: 96%
Wind: Calm
Dew Point: 52.0°F
Visibility: 10.00 mi


Airport Weather Forecast for KEZM

Translated METAR and TAF for KEZM
Translated METAR for KEZM (0037 UTC 23 October 2014)
found at http://aviationweather.gov/adds/metars/
 
METAR text: KEZM 230015Z AUTO 00000KT 10SM CLR 11/11 A3009 RMK AO2 T01090109
Conditions at: KEZM (EASTMAN , GA, US) observed 0015 UTC 23 October 2014
Temperature: 10.9°C (52°F)
Dewpoint: 10.9°C (52°F) [RH = 100%]
Pressure (altimeter): 30.09 inches Hg (1019.0 mb)
Winds: calm
Visibility: 10 or more miles (16+ km)
Ceiling: at least 12,000 feet AGL
Clouds: sky clear below 12,000 feet AGL
Weather: automated observation with no human augmentation;
there may or may not be significant weather present at this time
Translated TAF for KEZM

There is no translated TAF available for this airport

Find All Airport Services Find A Hotel Find A Rental Car Find A Golf Course Find A Restaurant $100 Hamburger



FBO's on the Field
FBO Company Facility Photos Services Transportation Aviation Fuel Prices: Prices include tax
Catering Weather Repair Courtesy Rental Type 100LL JetA JetA+ MOGAS 8087
 
Heart of Georgia Regional Airport

This FBO has not yet been rated
FS: Phillips 66
Last Updated: Oct-08
Login to update fuel prices
SS:
Contact Heart of Georgia Regional AirportMore FBO Information
 
Add another FBO Facility Photos Catering Weather Repair Courtesy Rental Type 100LL JetA JetA+ MOGAS 8087
Services Transportation Aviation Fuel Prices: Prices include tax


model-print
model-print
model-print
model-print